sensor_id;sensor_type;location;lat;lon;timestamp;pressure;altitude;pressure_sealevel;temperature;humidity
788;BME280;16074;42.708;23.312;2022-09-25T00:01:25;141101.78;;;11.56;70.71
788;BME280;16074;42.708;23.312;2022-09-25T00:03:53;141106.59;;;11.58;70.16
788;BME280;16074;42.708;23.312;2022-09-25T00:06:23;141090.91;;;11.52;70.36
788;BME280;16074;42.708;23.312;2022-09-25T00:08:52;141075.22;;;11.45;70.72
788;BME280;16074;42.708;23.312;2022-09-25T00:11:23;141072.81;;;11.44;70.86
788;BME280;16074;42.708;23.312;2022-09-25T00:13:53;141049.91;;;11.35;71.14
788;BME280;16074;42.708;23.312;2022-09-25T00:16:25;141040.28;;;11.31;70.99
788;BME280;16074;42.708;23.312;2022-09-25T00:18:54;141045.09;;;11.33;71.18
788;BME280;16074;42.708;23.312;2022-09-25T00:21:40;141013.75;;;11.20;71.50
788;BME280;16074;42.708;23.312;2022-09-25T00:24:09;141005.34;;;11.16;71.88
788;BME280;16074;42.708;23.312;2022-09-25T00:26:41;140993.28;;;11.11;72.31
788;BME280;16074;42.708;23.312;2022-09-25T00:29:14;140984.84;;;11.08;72.33
788;BME280;16074;42.708;23.312;2022-09-25T00:31:44;140982.44;;;11.07;72.48
788;BME280;16074;42.708;23.312;2022-09-25T00:34:12;140983.66;;;11.07;72.54
788;BME280;16074;42.708;23.312;2022-09-25T00:36:40;140954.75;;;10.95;72.62
788;BME280;16074;42.708;23.312;2022-09-25T00:39:08;140949.91;;;10.93;73.32
788;BME280;16074;42.708;23.312;2022-09-25T00:41:36;140925.81;;;10.83;73.20
788;BME280;16074;42.708;23.312;2022-09-25T00:47:42;140904.19;;;10.74;74.12
788;BME280;16074;42.708;23.312;2022-09-25T00:50:26;140878.88;;;10.64;73.74
788;BME280;16074;42.708;23.312;2022-09-25T00:52:59;140872.88;;;10.62;74.60
788;BME280;16074;42.708;23.312;2022-09-25T00:55:31;140843.97;;;10.50;75.27
788;BME280;16074;42.708;23.312;2022-09-25T00:58:01;140831.91;;;10.45;75.12
788;BME280;16074;42.708;23.312;2022-09-25T01:00:31;140843.97;;;10.50;75.32
788;BME280;16074;42.708;23.312;2022-09-25T01:03:01;140836.72;;;10.47;75.57
788;BME280;16074;42.708;23.312;2022-09-25T01:05:33;140849.94;;;10.52;75.38
788;BME280;16074;42.708;23.312;2022-09-25T01:08:04;140845.13;;;10.50;75.47
788;BME280;16074;42.708;23.312;2022-09-25T01:10:33;140815.06;;;10.38;75.24
788;BME280;16074;42.708;23.312;2022-09-25T01:13:01;140811.47;;;10.36;75.30
788;BME280;16074;42.708;23.312;2022-09-25T01:15:35;140821.09;;;10.40;75.67
788;BME280;16074;42.708;23.312;2022-09-25T01:18:14;140817.47;;;10.39;75.56
788;BME280;16074;42.708;23.312;2022-09-25T01:21:04;140795.78;;;10.30;75.94
788;BME280;16074;42.708;23.312;2022-09-25T01:23:58;140799.41;;;10.31;75.85
788;BME280;16074;42.708;23.312;2022-09-25T01:29:39;140803.00;;;10.33;75.85
788;BME280;16074;42.708;23.312;2022-09-25T01:32:18;140799.41;;;10.31;75.91
788;BME280;16074;42.708;23.312;2022-09-25T01:34:51;140800.59;;;10.32;75.89
788;BME280;16074;42.708;23.312;2022-09-25T01:37:25;140795.78;;;10.30;76.28
788;BME280;16074;42.708;23.312;2022-09-25T01:40:03;140793.38;;;10.29;76.30
788;BME280;16074;42.708;23.312;2022-09-25T01:42:39;140783.75;;;10.25;76.73
788;BME280;16074;42.708;23.312;2022-09-25T01:45:15;140784.97;;;10.25;76.50
788;BME280;16074;42.708;23.312;2022-09-25T01:47:47;140781.34;;;10.24;76.96
788;BME280;16074;42.708;23.312;2022-09-25T01:50:22;140778.94;;;10.23;77.02
788;BME280;16074;42.708;23.312;2022-09-25T01:52:56;140790.97;;;10.28;76.56
788;BME280;16074;42.708;23.312;2022-09-25T01:55:29;140778.94;;;10.23;76.95
788;BME280;16074;42.708;23.312;2022-09-25T01:58:07;140771.75;;;10.20;77.14
788;BME280;16074;42.708;23.312;2022-09-25T02:00:40;140754.88;;;10.13;77.14
788;BME280;16074;42.708;23.312;2022-09-25T02:03:14;140765.69;;;10.17;77.51
788;BME280;16074;42.708;23.312;2022-09-25T02:05:46;140762.13;;;10.16;77.67
788;BME280;16074;42.708;23.312;2022-09-25T02:08:19;140762.13;;;10.16;77.92
788;BME280;16074;42.708;23.312;2022-09-25T02:10:52;140752.47;;;10.12;77.76
788;BME280;16074;42.708;23.312;2022-09-25T02:13:23;140757.31;;;10.14;77.61
788;BME280;16074;42.708;23.312;2022-09-25T02:15:58;140757.31;;;10.14;77.62
788;BME280;16074;42.708;23.312;2022-09-25T02:18:28;140752.47;;;10.12;77.54
788;BME280;16074;42.708;23.312;2022-09-25T02:21:20;140745.25;;;10.09;77.77
788;BME280;16074;42.708;23.312;2022-09-25T02:23:55;140732.00;;;10.03;77.58
788;BME280;16074;42.708;23.312;2022-09-25T02:26:29;140733.22;;;10.04;77.59
788;BME280;16074;42.708;23.312;2022-09-25T02:28:58;140723.59;;;10.00;77.98
788;BME280;16074;42.708;23.312;2022-09-25T02:31:31;140723.59;;;10.00;77.91
788;BME280;16074;42.708;23.312;2022-09-25T02:34:02;140723.59;;;10.00;78.66
788;BME280;16074;42.708;23.312;2022-09-25T02:36:34;140718.72;;;9.98;78.53
788;BME280;16074;42.708;23.312;2022-09-25T02:39:03;140711.50;;;9.95;78.65
788;BME280;16074;42.708;23.312;2022-09-25T02:41:57;140707.88;;;9.93;78.72
788;BME280;16074;42.708;23.312;2022-09-25T02:44:35;140681.44;;;9.82;79.13
788;BME280;16074;42.708;23.312;2022-09-25T02:47:16;140682.63;;;9.83;79.14
788;BME280;16074;42.708;23.312;2022-09-25T02:49:53;140682.63;;;9.83;79.57
788;BME280;16074;42.708;23.312;2022-09-25T02:52:27;140707.88;;;9.93;79.69
788;BME280;16074;42.708;23.312;2022-09-25T02:55:05;140717.50;;;9.97;79.34
788;BME280;16074;42.708;23.312;2022-09-25T02:57:40;140710.28;;;9.94;79.44
788;BME280;16074;42.708;23.312;2022-09-25T03:00:13;140704.28;;;9.92;79.37
788;BME280;16074;42.708;23.312;2022-09-25T03:02:44;140701.88;;;9.91;79.22
788;BME280;16074;42.708;23.312;2022-09-25T03:05:19;140699.47;;;9.90;79.50
788;BME280;16074;42.708;23.312;2022-09-25T03:07:48;140715.09;;;9.96;78.94
788;BME280;16074;42.708;23.312;2022-09-25T03:10:34;140707.88;;;9.93;78.91
788;BME280;16074;42.708;23.312;2022-09-25T03:13:17;140711.50;;;9.95;78.76
788;BME280;16074;42.708;23.312;2022-09-25T03:15:49;140719.91;;;9.98;78.94
788;BME280;16074;42.708;23.312;2022-09-25T03:18:19;140694.66;;;9.88;79.17
788;BME280;16074;42.708;23.312;2022-09-25T03:20:47;140695.88;;;9.88;79.22
788;BME280;16074;42.708;23.312;2022-09-25T03:23:15;140711.50;;;9.95;79.00
788;BME280;16074;42.708;23.312;2022-09-25T03:25:44;140698.28;;;9.89;79.03
788;BME280;16074;42.708;23.312;2022-09-25T03:28:17;140707.88;;;9.93;78.70
788;BME280;16074;42.708;23.312;2022-09-25T03:30:54;140712.69;;;9.95;78.94
788;BME280;16074;42.708;23.312;2022-09-25T03:33:26;140713.91;;;9.96;79.00
788;BME280;16074;42.708;23.312;2022-09-25T03:36:06;140718.72;;;9.98;78.55
788;BME280;16074;42.708;23.312;2022-09-25T03:38:35;140685.03;;;9.84;78.83
788;BME280;16074;42.708;23.312;2022-09-25T03:41:04;140687.44;;;9.85;78.56
788;BME280;16074;42.708;23.312;2022-09-25T03:43:34;140691.06;;;9.86;78.73
788;BME280;16074;42.708;23.312;2022-09-25T03:46:03;140688.66;;;9.85;78.97
788;BME280;16074;42.708;23.312;2022-09-25T03:48:33;140664.59;;;9.75;79.21
788;BME280;16074;42.708;23.312;2022-09-25T03:51:02;140648.91;;;9.69;78.91
788;BME280;16074;42.708;23.312;2022-09-25T03:53:31;140664.59;;;9.75;78.99
788;BME280;16074;42.708;23.312;2022-09-25T03:56:01;140662.19;;;9.74;78.80
788;BME280;16074;42.708;23.312;2022-09-25T03:58:29;140659.78;;;9.73;78.33
788;BME280;16074;42.708;23.312;2022-09-25T04:00:57;140659.78;;;9.73;78.16
788;BME280;16074;42.708;23.312;2022-09-25T04:03:27;140657.38;;;9.72;78.57
788;BME280;16074;42.708;23.312;2022-09-25T04:05:59;140644.09;;;9.67;78.98
788;BME280;16074;42.708;23.312;2022-09-25T04:08:31;140639.28;;;9.65;79.44
788;BME280;16074;42.708;23.312;2022-09-25T04:11:01;140629.72;;;9.61;79.18
788;BME280;16074;42.708;23.312;2022-09-25T04:13:31;140621.25;;;9.57;79.90
788;BME280;16074;42.708;23.312;2022-09-25T04:16:01;140623.66;;;9.58;79.69
788;BME280;16074;42.708;23.312;2022-09-25T04:18:31;140610.44;;;9.53;80.00
788;BME280;16074;42.708;23.312;2022-09-25T04:21:03;140597.19;;;9.47;80.31
788;BME280;16074;42.708;23.312;2022-09-25T04:23:31;140586.38;;;9.43;80.79
788;BME280;16074;42.708;23.312;2022-09-25T04:26:00;140593.59;;;9.46;80.50
788;BME280;16074;42.708;23.312;2022-09-25T04:28:28;140588.78;;;9.44;80.08
788;BME280;16074;42.708;23.312;2022-09-25T04:30:59;140580.34;;;9.41;80.66
788;BME280;16074;42.708;23.312;2022-09-25T04:33:28;140568.31;;;9.36;80.79
788;BME280;16074;42.708;23.312;2022-09-25T04:36:16;140559.91;;;9.32;80.80
788;BME280;16074;42.708;23.312;2022-09-25T04:38:45;140562.31;;;9.33;81.50
788;BME280;16074;42.708;23.312;2022-09-25T04:41:14;140553.94;;;9.30;81.77
788;BME280;16074;42.708;23.312;2022-09-25T04:43:43;140564.72;;;9.34;81.42
788;BME280;16074;42.708;23.312;2022-09-25T04:46:12;140568.31;;;9.36;81.45
788;BME280;16074;42.708;23.312;2022-09-25T04:48:47;140568.31;;;9.36;81.24
788;BME280;16074;42.708;23.312;2022-09-25T04:51:17;140561.16;;;9.33;81.42
788;BME280;16074;42.708;23.312;2022-09-25T04:53:45;140559.91;;;9.32;81.10
788;BME280;16074;42.708;23.312;2022-09-25T04:56:13;140557.50;;;9.31;81.47
788;BME280;16074;42.708;23.312;2022-09-25T04:58:44;140521.44;;;9.16;81.84
788;BME280;16074;42.708;23.312;2022-09-25T05:01:13;140550.28;;;9.28;82.24
788;BME280;16074;42.708;23.312;2022-09-25T05:03:42;140558.75;;;9.32;82.08
788;BME280;16074;42.708;23.312;2022-09-25T05:06:10;140567.13;;;9.35;82.24
788;BME280;16074;42.708;23.312;2022-09-25T05:08:39;140576.75;;;9.39;82.61
788;BME280;16074;42.708;23.312;2022-09-25T05:11:08;140592.38;;;9.45;82.07
788;BME280;16074;42.708;23.312;2022-09-25T05:13:37;140606.81;;;9.51;81.62
788;BME280;16074;42.708;23.312;2022-09-25T05:16:05;140598.41;;;9.48;82.07
788;BME280;16074;42.708;23.312;2022-09-25T05:18:33;140600.81;;;9.49;81.86
788;BME280;16074;42.708;23.312;2022-09-25T05:21:02;140630.88;;;9.61;81.87
788;BME280;16074;42.708;23.312;2022-09-25T05:23:31;140641.69;;;9.66;81.74
788;BME280;16074;42.708;23.312;2022-09-25T05:26:01;140656.13;;;9.72;81.31
788;BME280;16074;42.708;23.312;2022-09-25T05:28:29;140656.13;;;9.72;81.22
788;BME280;16074;42.708;23.312;2022-09-25T05:30:58;140646.50;;;9.68;80.84
788;BME280;16074;42.708;23.312;2022-09-25T05:33:28;140663.34;;;9.75;80.67
788;BME280;16074;42.708;23.312;2022-09-25T05:35:59;140687.44;;;9.85;80.27
788;BME280;16074;42.708;23.312;2022-09-25T05:38:27;140698.28;;;9.89;80.60
788;BME280;16074;42.708;23.312;2022-09-25T05:41:01;140712.69;;;9.95;79.82
788;BME280;16074;42.708;23.312;2022-09-25T05:43:31;140734.41;;;10.04;79.73
788;BME280;16074;42.708;23.312;2022-09-25T05:45:59;140762.13;;;10.16;79.10
788;BME280;16074;42.708;23.312;2022-09-25T05:48:28;140772.94;;;10.20;79.05
788;BME280;16074;42.708;23.312;2022-09-25T05:50:57;140811.47;;;10.36;78.82
788;BME280;16074;42.708;23.312;2022-09-25T05:53:26;140846.38;;;10.51;78.31
788;BME280;16074;42.708;23.312;2022-09-25T05:55:56;140868.03;;;10.60;76.71
788;BME280;16074;42.708;23.312;2022-09-25T05:58:27;140875.28;;;10.63;75.78
788;BME280;16074;42.708;23.312;2022-09-25T06:00:59;140911.38;;;10.77;76.23
788;BME280;16074;42.708;23.312;2022-09-25T06:03:27;140936.69;;;10.88;75.26
788;BME280;16074;42.708;23.312;2022-09-25T06:05:56;140952.34;;;10.94;74.73
788;BME280;16074;42.708;23.312;2022-09-25T06:08:24;140984.84;;;11.08;74.32
788;BME280;16074;42.708;23.312;2022-09-25T06:10:53;141041.50;;;11.31;73.38
788;BME280;16074;42.708;23.312;2022-09-25T06:13:22;141066.78;;;11.42;72.35
788;BME280;16074;42.708;23.312;2022-09-25T06:15:52;141100.59;;;11.56;71.70
788;BME280;16074;42.708;23.312;2022-09-25T06:18:22;141141.53;;;11.73;71.18
788;BME280;16074;42.708;23.312;2022-09-25T06:20:51;141159.66;;;11.80;70.04
788;BME280;16074;42.708;23.312;2022-09-25T06:23:25;141206.66;;;11.99;69.11
788;BME280;16074;42.708;23.312;2022-09-25T06:25:53;141253.69;;;12.19;68.72
788;BME280;16074;42.708;23.312;2022-09-25T06:28:22;141304.38;;;12.40;67.73
788;BME280;16074;42.708;23.312;2022-09-25T06:30:51;141347.75;;;12.58;65.70
788;BME280;16074;42.708;23.312;2022-09-25T06:33:20;141385.19;;;12.73;65.04
788;BME280;16074;42.708;23.312;2022-09-25T06:35:48;141427.47;;;12.91;64.19
788;BME280;16074;42.708;23.312;2022-09-25T06:38:16;141438.31;;;12.95;63.46
788;BME280;16074;42.708;23.312;2022-09-25T06:40:45;141441.94;;;12.97;63.43
788;BME280;16074;42.708;23.312;2022-09-25T06:43:14;141458.78;;;13.04;62.23
788;BME280;16074;42.708;23.312;2022-09-25T06:45:43;141475.69;;;13.10;62.06
788;BME280;16074;42.708;23.312;2022-09-25T06:48:16;141531.25;;;13.33;61.82
788;BME280;16074;42.708;23.312;2022-09-25T06:50:49;141633.88;;;13.76;61.41
788;BME280;16074;42.708;23.312;2022-09-25T06:53:19;141726.94;;;14.14;59.59
788;BME280;16074;42.708;23.312;2022-09-25T06:55:48;141801.84;;;14.45;58.05
788;BME280;16074;42.708;23.312;2022-09-25T06:58:18;141915.44;;;14.92;57.24
788;BME280;16074;42.708;23.312;2022-09-25T07:00:47;142035.22;;;15.41;55.41
788;BME280;16074;42.708;23.312;2022-09-25T07:03:17;142151.34;;;15.89;53.90
788;BME280;16074;42.708;23.312;2022-09-25T07:06:00;142268.81;;;16.37;51.85
788;BME280;16074;42.708;23.312;2022-09-25T07:08:29;142394.72;;;16.89;51.21
788;BME280;16074;42.708;23.312;2022-09-25T07:10:58;142449.22;;;17.11;49.56
788;BME280;16074;42.708;23.312;2022-09-25T07:13:29;142581.31;;;17.66;48.55
788;BME280;16074;42.708;23.312;2022-09-25T07:15:59;142684.34;;;18.08;47.40
788;BME280;16074;42.708;23.312;2022-09-25T07:18:29;142747.47;;;18.34;45.66
788;BME280;16074;42.708;23.312;2022-09-25T07:21:02;142834.78;;;18.70;44.93
788;BME280;16074;42.708;23.312;2022-09-25T07:23:31;142878.47;;;18.88;43.71
788;BME280;16074;42.708;23.312;2022-09-25T07:26:04;142959.81;;;19.21;43.85
788;BME280;16074;42.708;23.312;2022-09-25T07:28:33;142998.63;;;19.37;43.46
788;BME280;16074;42.708;23.312;2022-09-25T07:31:12;143107.91;;;19.82;42.82
788;BME280;16074;42.708;23.312;2022-09-25T07:33:42;143211.13;;;20.24;41.68
788;BME280;16074;42.708;23.312;2022-09-25T07:36:11;143329.00;;;20.72;41.18
788;BME280;16074;42.708;23.312;2022-09-25T07:38:39;143307.13;;;20.63;40.33
788;BME280;16074;42.708;23.312;2022-09-25T07:41:09;143290.09;;;20.56;40.40
788;BME280;16074;42.708;23.312;2022-09-25T07:43:39;143322.91;;;20.70;40.51
788;BME280;16074;42.708;23.312;2022-09-25T07:46:10;143342.34;;;20.78;40.23
788;BME280;16074;42.708;23.312;2022-09-25T07:48:38;143366.72;;;20.88;39.22
788;BME280;16074;42.708;23.312;2022-09-25T07:51:10;143406.81;;;21.04;39.37
788;BME280;16074;42.708;23.312;2022-09-25T07:53:38;143485.81;;;21.37;38.61
788;BME280;16074;42.708;23.312;2022-09-25T07:56:08;143569.78;;;21.71;38.63
788;BME280;16074;42.708;23.312;2022-09-25T07:58:36;143544.25;;;21.61;38.69
788;BME280;16074;42.708;23.312;2022-09-25T08:01:06;143471.22;;;21.31;38.67
788;BME280;16074;42.708;23.312;2022-09-25T08:03:35;143603.84;;;21.85;38.25
788;BME280;16074;42.708;23.312;2022-09-25T08:06:05;143703.56;;;22.26;37.27
788;BME280;16074;42.708;23.312;2022-09-25T08:08:37;143760.81;;;22.49;36.67
788;BME280;16074;42.708;23.312;2022-09-25T08:11:07;143737.72;;;22.40;36.74
788;BME280;16074;42.708;23.312;2022-09-25T08:13:37;143807.06;;;22.68;37.02
788;BME280;16074;42.708;23.312;2022-09-25T08:16:07;143841.16;;;22.82;36.95
788;BME280;16074;42.708;23.312;2022-09-25T08:18:39;143942.22;;;23.23;36.44
788;BME280;16074;42.708;23.312;2022-09-25T08:21:09;144022.63;;;23.56;35.76
788;BME280;16074;42.708;23.312;2022-09-25T08:23:43;144075.00;;;23.78;35.49
788;BME280;16074;42.708;23.312;2022-09-25T08:26:14;144068.94;;;23.75;34.85
788;BME280;16074;42.708;23.312;2022-09-25T08:28:42;144092.13;;;23.85;34.76
788;BME280;16074;42.708;23.312;2022-09-25T08:31:11;144122.56;;;23.97;34.29
788;BME280;16074;42.708;23.312;2022-09-25T08:33:43;144207.88;;;24.32;33.82
788;BME280;16074;42.708;23.312;2022-09-25T08:36:11;144211.53;;;24.33;34.10
788;BME280;16074;42.708;23.312;2022-09-25T08:38:41;144196.88;;;24.27;34.11
788;BME280;16074;42.708;23.312;2022-09-25T08:41:15;144204.22;;;24.30;33.79
788;BME280;16074;42.708;23.312;2022-09-25T08:46:38;144323.72;;;24.79;33.23
788;BME280;16074;42.708;23.312;2022-09-25T08:49:29;144312.75;;;24.75;32.44
788;BME280;16074;42.708;23.312;2022-09-25T08:52:02;144322.50;;;24.79;33.49
788;BME280;16074;42.708;23.312;2022-09-25T08:54:35;144392.00;;;25.07;32.32
788;BME280;16074;42.708;23.312;2022-09-25T08:57:26;144454.25;;;25.33;32.41
788;BME280;16074;42.708;23.312;2022-09-25T08:59:59;144449.38;;;25.31;31.39
788;BME280;16074;42.708;23.312;2022-09-25T09:02:36;144544.53;;;25.69;31.50
788;BME280;16074;42.708;23.312;2022-09-25T09:05:14;144627.56;;;26.03;31.29
788;BME280;16074;42.708;23.312;2022-09-25T09:07:47;144659.28;;;26.16;31.29
788;BME280;16074;42.708;23.312;2022-09-25T09:10:26;144636.09;;;26.07;31.09
788;BME280;16074;42.708;23.312;2022-09-25T09:13:00;144720.31;;;26.41;31.06
788;BME280;16074;42.708;23.312;2022-09-25T09:15:34;144698.34;;;26.32;29.91
788;BME280;16074;42.708;23.312;2022-09-25T09:18:13;144666.59;;;26.19;30.17
788;BME280;16074;42.708;23.312;2022-09-25T09:20:50;144764.34;;;26.59;30.23
788;BME280;16074;42.708;23.312;2022-09-25T09:23:20;144765.53;;;26.60;30.07
788;BME280;16074;42.708;23.312;2022-09-25T09:26:01;144755.75;;;26.56;29.61
788;BME280;16074;42.708;23.312;2022-09-25T09:28:47;144794.84;;;26.72;29.53
788;BME280;16074;42.708;23.312;2022-09-25T09:31:25;144793.59;;;26.71;29.94
788;BME280;16074;42.708;23.312;2022-09-25T09:34:02;144810.72;;;26.78;29.69
788;BME280;16074;42.708;23.312;2022-09-25T09:36:37;144796.03;;;26.72;29.44
788;BME280;16074;42.708;23.312;2022-09-25T09:39:14;144737.47;;;26.48;28.83
788;BME280;16074;42.708;23.312;2022-09-25T09:41:56;144675.16;;;26.23;29.46
788;BME280;16074;42.708;23.312;2022-09-25T09:44:41;144722.75;;;26.42;29.96
788;BME280;16074;42.708;23.312;2022-09-25T09:47:23;144799.72;;;26.73;29.10
788;BME280;16074;42.708;23.312;2022-09-25T09:49:56;144873.00;;;27.03;28.89
788;BME280;16074;42.708;23.312;2022-09-25T09:52:29;144840.03;;;26.90;29.11
788;BME280;16074;42.708;23.312;2022-09-25T09:55:14;144899.91;;;27.14;28.93
788;BME280;16074;42.708;23.312;2022-09-25T09:57:49;144869.34;;;27.02;28.02
788;BME280;16074;42.708;23.312;2022-09-25T10:00:20;144899.91;;;27.14;28.55
788;BME280;16074;42.708;23.312;2022-09-25T10:02:53;144998.88;;;27.55;28.38
788;BME280;16074;42.708;23.312;2022-09-25T10:05:25;145063.69;;;27.81;27.68
788;BME280;16074;42.708;23.312;2022-09-25T10:07:54;145102.81;;;27.97;27.10
788;BME280;16074;42.708;23.312;2022-09-25T10:10:33;145049.03;;;27.75;27.18
788;BME280;16074;42.708;23.312;2022-09-25T10:13:11;144963.47;;;27.40;27.96
788;BME280;16074;42.708;23.312;2022-09-25T10:15:44;145020.88;;;27.64;28.21
788;BME280;16074;42.708;23.312;2022-09-25T10:18:14;144998.88;;;27.55;28.08
788;BME280;16074;42.708;23.312;2022-09-25T10:20:46;144982.97;;;27.48;27.28
788;BME280;16074;42.708;23.312;2022-09-25T10:23:30;144926.81;;;27.25;27.72
788;BME280;16074;42.708;23.312;2022-09-25T10:26:00;144957.34;;;27.38;27.64
788;BME280;16074;42.708;23.312;2022-09-25T10:28:31;145024.53;;;27.65;27.83
788;BME280;16074;42.708;23.312;2022-09-25T10:31:02;145036.81;;;27.70;27.39
788;BME280;16074;42.708;23.312;2022-09-25T10:33:34;145013.56;;;27.61;27.12
788;BME280;16074;42.708;23.312;2022-09-25T10:36:03;144914.59;;;27.20;27.70
788;BME280;16074;42.708;23.312;2022-09-25T10:38:37;144847.34;;;26.93;28.36
788;BME280;16074;42.708;23.312;2022-09-25T10:41:10;144868.09;;;27.01;28.16
788;BME280;16074;42.708;23.312;2022-09-25T10:43:51;144819.28;;;26.81;28.49
788;BME280;16074;42.708;23.312;2022-09-25T10:46:27;144825.38;;;26.84;28.02
788;BME280;16074;42.708;23.312;2022-09-25T10:49:18;144875.44;;;27.04;28.43
788;BME280;16074;42.708;23.312;2022-09-25T10:52:06;145001.34;;;27.56;28.15
788;BME280;16074;42.708;23.312;2022-09-25T10:54:35;145083.25;;;27.89;28.02
788;BME280;16074;42.708;23.312;2022-09-25T10:57:16;145168.81;;;28.24;26.71
788;BME280;16074;42.708;23.312;2022-09-25T10:59:50;145300.91;;;28.78;26.35
788;BME280;16074;42.708;23.312;2022-09-25T11:02:29;145314.41;;;28.83;26.27
788;BME280;16074;42.708;23.312;2022-09-25T11:05:00;145314.41;;;28.83;25.81
788;BME280;16074;42.708;23.312;2022-09-25T11:07:29;145401.25;;;29.19;25.91
788;BME280;16074;42.708;23.312;2022-09-25T11:09:58;145471.03;;;29.47;25.29
788;BME280;16074;42.708;23.312;2022-09-25T11:12:27;145468.66;;;29.46;25.00
788;BME280;16074;42.708;23.312;2022-09-25T11:14:59;145422.09;;;29.27;25.80
788;BME280;16074;42.708;23.312;2022-09-25T11:17:31;145435.53;;;29.32;25.00
788;BME280;16074;42.708;23.312;2022-09-25T11:20:19;145338.88;;;28.93;25.04
788;BME280;16074;42.708;23.312;2022-09-25T11:22:51;145263.00;;;28.62;25.72
788;BME280;16074;42.708;23.312;2022-09-25T11:25:25;145362.13;;;29.03;25.19
788;BME280;16074;42.708;23.312;2022-09-25T11:27:59;145406.16;;;29.21;25.49
788;BME280;16074;42.708;23.312;2022-09-25T11:30:39;145493.09;;;29.56;24.52
788;BME280;16074;42.708;23.312;2022-09-25T11:33:12;145510.22;;;29.63;25.13
788;BME280;16074;42.708;23.312;2022-09-25T11:35:48;145566.53;;;29.86;24.74
788;BME280;16074;42.708;23.312;2022-09-25T11:38:27;145642.47;;;30.17;24.29
788;BME280;16074;42.708;23.312;2022-09-25T11:41:15;145720.88;;;30.49;24.85
788;BME280;16074;42.708;23.312;2022-09-25T11:43:57;145773.56;;;30.70;24.25
788;BME280;16074;42.708;23.312;2022-09-25T11:46:37;145874.06;;;31.11;23.42
788;BME280;16074;42.708;23.312;2022-09-25T11:49:17;145939.00;;;31.37;23.35
788;BME280;16074;42.708;23.312;2022-09-25T11:54:56;145750.25;;;30.60;23.10
788;BME280;16074;42.708;23.312;2022-09-25T11:57:33;145795.63;;;30.79;23.36
788;BME280;16074;42.708;23.312;2022-09-25T12:00:07;145818.88;;;30.88;22.88
788;BME280;16074;42.708;23.312;2022-09-25T12:02:52;145678.00;;;30.31;23.24
788;BME280;16074;42.708;23.312;2022-09-25T12:05:35;145597.19;;;29.98;23.62
788;BME280;16074;42.708;23.312;2022-09-25T12:08:16;145647.38;;;30.19;23.54
788;BME280;16074;42.708;23.312;2022-09-25T12:10:53;145658.41;;;30.23;23.74
788;BME280;16074;42.708;23.312;2022-09-25T12:13:30;145669.41;;;30.28;23.12
788;BME280;16074;42.708;23.312;2022-09-25T12:16:14;145619.22;;;30.07;23.61
788;BME280;16074;42.708;23.312;2022-09-25T12:18:56;145613.06;;;30.05;22.83
788;BME280;16074;42.708;23.312;2022-09-25T12:21:33;145504.13;;;29.60;24.00
788;BME280;16074;42.708;23.312;2022-09-25T12:24:10;145501.69;;;29.59;23.55
788;BME280;16074;42.708;23.312;2022-09-25T12:26:48;145450.22;;;29.38;23.81
788;BME280;16074;42.708;23.312;2022-09-25T12:29:36;145504.13;;;29.60;23.55
788;BME280;16074;42.708;23.312;2022-09-25T12:32:17;145506.56;;;29.61;23.15
788;BME280;16074;42.708;23.312;2022-09-25T12:35:07;145500.44;;;29.59;23.55
788;BME280;16074;42.708;23.312;2022-09-25T12:37:42;145527.34;;;29.70;23.67
788;BME280;16074;42.708;23.312;2022-09-25T12:40:17;145611.88;;;30.04;23.15
788;BME280;16074;42.708;23.312;2022-09-25T12:42:53;145712.25;;;30.45;22.80
788;BME280;16074;42.708;23.312;2022-09-25T12:45:28;145655.97;;;30.22;23.21
788;BME280;16074;42.708;23.312;2022-09-25T12:48:07;145684.13;;;30.34;23.13
788;BME280;16074;42.708;23.312;2022-09-25T12:50:43;145611.88;;;30.04;23.42
788;BME280;16074;42.708;23.312;2022-09-25T12:53:23;145676.75;;;30.31;23.25
788;BME280;16074;42.708;23.312;2022-09-25T12:55:56;145751.50;;;30.61;22.94
788;BME280;16074;42.708;23.312;2022-09-25T12:58:38;145730.66;;;30.52;22.70
788;BME280;16074;42.708;23.312;2022-09-25T13:01:14;145690.22;;;30.36;23.52
788;BME280;16074;42.708;23.312;2022-09-25T13:03:54;145742.97;;;30.58;23.68
788;BME280;16074;42.708;23.312;2022-09-25T13:06:34;145807.88;;;30.84;23.87
788;BME280;16074;42.708;23.312;2022-09-25T13:09:15;145769.88;;;30.68;22.76
788;BME280;16074;42.708;23.312;2022-09-25T13:11:47;145584.88;;;29.93;24.06
788;BME280;16074;42.708;23.312;2022-09-25T13:14:26;145658.41;;;30.23;23.93
788;BME280;16074;42.708;23.312;2022-09-25T13:16:56;145750.25;;;30.60;23.76
788;BME280;16074;42.708;23.312;2022-09-25T13:19:25;145745.41;;;30.58;23.84
788;BME280;16074;42.708;23.312;2022-09-25T13:22:01;145932.88;;;31.35;23.99
788;BME280;16074;42.708;23.312;2022-09-25T13:24:37;146021.16;;;31.71;22.82
788;BME280;16074;42.708;23.312;2022-09-25T13:27:14;146018.72;;;31.70;23.16
788;BME280;16074;42.708;23.312;2022-09-25T13:29:54;146095.94;;;32.01;22.52
788;BME280;16074;42.708;23.312;2022-09-25T13:32:24;146129.09;;;32.14;23.02
788;BME280;16074;42.708;23.312;2022-09-25T13:34:56;145991.69;;;31.59;23.05
788;BME280;16074;42.708;23.312;2022-09-25T13:37:29;145912.03;;;31.26;23.74
788;BME280;16074;42.708;23.312;2022-09-25T13:39:59;145712.25;;;30.45;24.19
788;BME280;16074;42.708;23.312;2022-09-25T13:42:46;145599.63;;;29.99;24.40
788;BME280;16074;42.708;23.312;2022-09-25T13:45:27;145599.63;;;29.99;24.50
788;BME280;16074;42.708;23.312;2022-09-25T13:48:00;145559.19;;;29.83;25.10